CST,Max TemperatureF,Mean TemperatureF,Min TemperatureF,Max Dew PointF,MeanDew PointF,Min DewpointF,Max Humidity, Mean Humidity, Min Humidity, Max Sea Level PressureIn, Mean Sea Level PressureIn, Min Sea Level PressureIn, Max VisibilityMiles, Mean VisibilityMiles, Min VisibilityMiles, Max Wind SpeedMPH, Mean Wind SpeedMPH, Max Gust SpeedMPH,PrecipitationIn, CloudCover, Events, WindDirDegrees
2011-11-1,62,46,30,41,35,30,100,74,38,30.13,30.07,29.97,10,8,0,14,4,18,0.00,0,Fog,185
2011-11-2,57,47,37,46,38,34,93,69,41,30.09,30.03,29.98,10,9,3,16,11,25,0.05,5,Rain,274
2011-11-3,46,40,33,39,35,30,93,81,57,30.25,30.14,30.07,10,10,7,22,10,30,0.13,5,Rain,17
2011-11-4,48,38,28,37,30,25,100,86,40,30.36,30.28,30.25,10,10,7,8,3,,0.00,0,,27
2011-11-5,53,42,30,36,31,27,93,72,41,30.28,30.18,30.03,10,10,10,12,4,21,0.00,0,,168
2011-11-6,57,50,42,45,38,30,76,65,53,30.06,29.99,29.91,10,10,10,20,10,31,0.00,2,,193
2011-11-7,57,46,35,45,31,21,93,63,25,30.23,30.18,30.09,10,10,10,9,3,,0.00,2,,240
2011-11-8,46,44,41,41,35,21,93,75,39,30.20,30.08,29.94,10,9,3,17,6,20,0.00,8,Rain,36
2011-11-9,42,37,32,43,37,30,100,91,81,29.92,29.80,29.52,10,8,2,26,14,39,0.20,6,Rain-Snow,345
2011-11-10,35,32,30,30,28,27,87,83,70,29.98,29.93,29.88,10,10,4,18,10,22,0.00,4,Snow,268
2011-11-11,41,34,26,30,26,19,93,75,45,29.98,29.87,29.70,10,10,2,14,6,17,0.00,3,,223
2011-11-12,55,44,32,41,33,30,93,69,44,29.74,29.65,29.49,10,10,10,20,9,32,0.00,0,,217
2011-11-13,62,53,44,50,40,32,82,65,39,29.56,29.43,29.23,10,10,10,23,16,34,0.00,3,,217
2011-11-14,73,54,35,64,34,30,87,69,44,29.71,29.61,29.54,20,10,10,18,7,28,0.00,1,Rain,222
2011-11-15,57,42,28,32,29,25,93,65,33,29.82,29.74,29.65,10,10,10,17,6,30,0.00,0,,234
2011-11-16,39,34,28,21,14,5,60,47,26,30.10,29.99,29.85,10,10,10,23,10,31,0.00,0,,271
2011-11-17,32,28,23,12,10,9,59,51,40,30.19,30.12,30.06,10,10,10,16,9,23,0.00,0,,252
2011-11-18,48,36,24,18,15,12,59,41,25,30.14,29.96,29.81,10,10,10,23,10,34,0.00,0,,195
2011-11-19,51,44,37,45,30,18,82,58,36,29.86,29.79,29.68,10,10,10,15,12,24,0.00,7,,213
2011-11-20,42,37,32,36,28,25,87,77,56,30.35,30.20,29.87,10,10,7,18,11,24,0.00,8,,358
2011-11-21,39,36,32,32,28,25,100,79,65,30.36,30.30,30.23,10,10,10,7,5,,0.00,6,,28
2011-11-22,41,37,33,34,33,32,93,81,75,30.25,30.09,29.94,10,10,7,16,6,20,0.00,6,,35
2011-11-23,46,39,32,36,32,30,100,88,62,30.20,30.12,30.03,10,6,1,14,7,18,0.00,3,,272
2011-11-24,44,40,35,41,37,34,93,87,81,30.15,30.07,29.95,10,5,2,17,13,24,0.00,5,,221
2011-11-25,51,46,42,43,40,36,82,74,62,29.95,29.89,29.82,10,10,10,20,11,29,0.00,3,,207
2011-11-26,51,48,42,48,45,43,100,85,71,29.84,29.80,29.75,10,7,2,15,7,21,0.16,8,Rain,212
2011-11-27,42,37,32,43,32,23,100,83,69,30.16,29.97,29.77,10,9,5,18,10,24,0.15,8,Rain,333
2011-11-28,32,29,26,25,24,23,86,78,69,30.18,30.12,30.03,10,10,10,8,5,,0.00,6,,347
2011-11-29,37,32,26,30,23,0,93,73,27,30.04,30.01,29.98,20,10,10,23,11,34,0.00,3,,355
2011-11-30,41,31,21,19,14,3,80,53,4,30.12,30.04,29.98,10,10,10,12,8,,0.00,2,,264